Idaho City, Idaho
Current Conditions -  °F | °C
As of 7:53 AM on Wednesday 22 Oct 2014 (Local Time) from KBOI Reporting Station
Clear Clear  
Wind Chill: 39°   Ceiling: Unl
Heat Index: 45°   Visibility: 10mi
Dew Point: 35°   Wind: 14mph
Humidity: 68%   Direction: 130°SE
Pressure: 30.08"   Gusts: NA
Location:  43.83°N, 115.83°W
Report Text: KBOI 221353Z 13012KT 10SM CLR 07/02 A3008 RMK AO2 SLP187 T00720017
Loading
Personal Weather Stations






























Interactive Weather Map
Tropical Storm Tracking
New forecast layout! Learn more

10-Day Weather Forecast

Advertisements
Track Severe Weather on mobile